createdAt,value
2019-06-01T00:00:22.016Z,62989.77
2019-06-01T00:02:54.589Z,62979.21
2019-06-01T00:05:16.301Z,62976.89
2019-06-01T00:07:42.955Z,62976.89
2019-06-01T00:10:09.386Z,62980.71
2019-06-01T00:12:35.609Z,62980.86
2019-06-01T00:15:03.549Z,62979.96
2019-06-01T00:17:29.855Z,62971.02
2019-06-01T00:19:56.138Z,62972.55
2019-06-01T00:22:22.364Z,62975.59
2019-06-01T00:24:48.586Z,62974.09
2019-06-01T00:27:14.723Z,62979.41
2019-06-01T00:29:40.940Z,62982.23
2019-06-01T00:32:07.184Z,62981.93
2019-06-01T00:34:33.413Z,62983.31
2019-06-01T00:36:59.655Z,62982.68
2019-06-01T00:39:25.880Z,62992.37
2019-06-01T00:41:52.559Z,62995.04
2019-06-01T00:44:18.854Z,63001.23
2019-06-01T00:46:44.979Z,63011.60
2019-06-01T00:49:11.106Z,63011.95
2019-06-01T00:51:37.249Z,63011.82
2019-06-01T00:54:03.488Z,63005.60
2019-06-01T00:56:29.721Z,62991.85
2019-06-01T00:58:55.955Z,62982.48
2019-06-01T01:01:22.183Z,62987.13
2019-06-01T01:03:48.419Z,62985.08
2019-06-01T01:06:14.553Z,62989.77
2019-06-01T01:08:40.703Z,62995.66
2019-06-01T01:11:06.920Z,62984.33
2019-06-01T01:13:33.151Z,62986.30
2019-06-01T01:15:59.763Z,62990.32
2019-06-01T01:18:26.003Z,62992.29
2019-06-01T01:20:52.231Z,63001.46
2019-06-01T01:23:18.526Z,62998.39
2019-06-01T01:25:44.732Z,63005.52
2019-06-01T01:28:10.935Z,62997.01
2019-06-01T01:30:37.314Z,62988.48
2019-06-01T01:33:03.612Z,62990.87
2019-06-01T01:35:29.839Z,63000.36
2019-06-01T01:37:59.245Z,62994.14
2019-06-01T01:40:26.464Z,62991.30
2019-06-01T01:42:52.715Z,62986.73
2019-06-01T01:45:19.045Z,63002.41
2019-06-01T01:47:45.286Z,62995.44
2019-06-01T01:50:13.210Z,62987.80
2019-06-01T01:52:39.455Z,62987.48
2019-06-01T01:55:05.780Z,62992.17
2019-06-01T01:57:32.045Z,62994.69
2019-06-01T01:59:59.395Z,63000.48
2019-06-01T02:02:25.718Z,63011.60
2019-06-01T02:04:51.843Z,63016.59
2019-06-01T02:07:18.075Z,63017.74
2019-06-01T02:09:44.312Z,63022.31
2019-06-01T02:12:10.548Z,63034.95
2019-06-01T02:14:36.683Z,63045.52
2019-06-01T02:17:02.931Z,63041.27
2019-06-01T02:19:29.139Z,63044.77
2019-06-01T02:21:56.250Z,63041.82
2019-06-01T02:24:22.716Z,63046.94
2019-06-01T02:26:48.971Z,63037.92
2019-06-01T02:29:15.100Z,63051.86
2019-06-01T02:31:42.823Z,63056.56
2019-06-01T02:34:09.254Z,63064.55
2019-06-01T02:36:35.565Z,63064.20
2019-06-01T02:39:03.295Z,63069.65
2019-06-01T02:41:30.636Z,63072.05
2019-06-01T02:43:57.486Z,63072.05
2019-06-01T02:46:25.022Z,63076.22
2019-06-01T02:48:51.256Z,63077.10
2019-06-01T02:51:17.390Z,63083.09
2019-06-01T02:53:43.619Z,63081.94
2019-06-01T02:56:09.757Z,63096.96
2019-06-01T02:58:35.971Z,63104.27
2019-06-01T03:01:11.569Z,63106.46
2019-06-01T03:03:38.287Z,63111.37
2019-06-01T03:06:07.689Z,63109.23
2019-06-01T03:08:35.891Z,63123.61
2019-06-01T03:11:05.933Z,63125.38
2019-06-01T03:13:34.260Z,63130.30
2019-06-01T03:16:03.314Z,63136.19
2019-06-01T03:18:33.154Z,63141.98
2019-06-01T03:21:01.648Z,63153.79
2019-06-01T03:23:29.833Z,63170.39
2019-06-01T03:25:57.070Z,63186.37
2019-06-01T03:28:26.521Z,63207.22
2019-06-01T03:30:52.738Z,63224.51
2019-06-01T03:33:19.004Z,63248.99
2019-06-01T03:35:45.224Z,63270.77
2019-06-01T03:38:11.593Z,63297.58
2019-06-01T03:40:37.813Z,63325.48
2019-06-01T03:43:04.352Z,63350.25
2019-06-01T03:45:30.481Z,63383.21
2019-06-01T03:47:56.720Z,63420.11
2019-06-01T03:50:22.951Z,63442.14
2019-06-01T03:52:49.202Z,63468.66
2019-06-01T03:55:15.433Z,63494.75
2019-06-01T03:57:41.677Z,63509.43
2019-06-01T04:00:09.373Z,63541.78
2019-06-01T04:02:35.744Z,63555.61
2019-06-01T04:05:03.535Z,63575.78
2019-06-01T04:07:30.020Z,63607.84
2019-06-01T04:09:56.248Z,63633.55
2019-06-01T04:12:22.507Z,63670.86
2019-06-01T04:14:48.756Z,63681.84
2019-06-01T04:17:14.989Z,63706.23
2019-06-01T04:19:41.229Z,63752.58
2019-06-01T04:22:12.148Z,63774.37
2019-06-01T04:24:38.400Z,63798.23
2019-06-01T04:27:04.638Z,63804.38
2019-06-01T04:29:30.873Z,63837.82
2019-06-01T04:31:57.096Z,63864.75
2019-06-01T04:34:23.327Z,63907.13
2019-06-01T04:36:49.550Z,63940.70
2019-06-01T04:39:15.810Z,63982.55
2019-06-01T04:41:42.025Z,64002.71
2019-06-01T04:44:08.264Z,64032.88
2019-06-01T04:46:34.393Z,64043.92
2019-06-01T04:49:00.620Z,64043.35
2019-06-01T04:51:26.860Z,64069.72
2019-06-01T04:53:52.992Z,64092.96
2019-06-01T04:56:19.124Z,64111.70
2019-06-01T04:58:45.362Z,64139.28
2019-06-01T05:01:11.642Z,64152.96
2019-06-01T05:03:37.860Z,64148.75
2019-06-01T05:06:05.025Z,64145.68
2019-06-01T05:08:31.229Z,64175.14
2019-06-01T05:10:57.468Z,64184.30
2019-06-01T05:13:23.916Z,64194.44
2019-06-01T05:15:50.152Z,64209.23
2019-06-01T05:18:19.554Z,64220.27
2019-06-01T05:20:44.541Z,64241.23
2019-06-01T05:23:10.772Z,64242.13
2019-06-01T05:25:36.914Z,64277.45
2019-06-01T05:28:03.068Z,64271.92
2019-06-01T05:30:29.303Z,64263.65
2019-06-01T05:32:55.433Z,64290.05
2019-06-01T05:35:21.580Z,64338.21
2019-06-01T05:37:47.822Z,64384.06
2019-06-01T05:40:14.778Z,64384.06
2019-06-01T05:42:41.142Z,64352.36
2019-06-01T05:45:08.989Z,64378.33
2019-06-01T05:47:35.456Z,64387.93
2019-06-01T05:50:07.151Z,64430.29
2019-06-01T05:52:33.423Z,64493.54
2019-06-01T05:54:59.948Z,64476.07
2019-06-01T05:57:26.107Z,64490.33
2019-06-01T05:59:52.333Z,64490.12
2019-06-01T06:02:19.582Z,64479.94
2019-06-01T06:04:45.934Z,64498.65
2019-06-01T06:07:12.817Z,64508.18
2019-06-01T06:09:39.172Z,64517.36
2019-06-01T06:12:05.495Z,64543.47
2019-06-01T06:14:32.024Z,64557.52
2019-06-01T06:16:58.266Z,64577.45
2019-06-01T06:19:24.393Z,64588.96
2019-06-01T06:21:50.637Z,64565.17
2019-06-01T06:24:16.906Z,64524.77
2019-06-01T06:26:43.144Z,64512.71
2019-06-01T06:29:09.264Z,64590.17
2019-06-01T06:31:35.505Z,64630.85
2019-06-01T06:34:01.750Z,64595.72
2019-06-01T06:36:27.984Z,64608.70
2019-06-01T06:38:54.235Z,64606.38
2019-06-01T06:41:20.670Z,64573.90
2019-06-01T06:43:46.920Z,64607.91
2019-06-01T06:46:13.151Z,64599.62
2019-06-01T06:48:39.421Z,64577.89
2019-06-01T06:51:05.657Z,64548.57
2019-06-01T06:53:35.048Z,64555.53
2019-06-01T06:56:00.049Z,64585.08
2019-06-01T06:58:26.584Z,64552.55
2019-06-01T07:00:52.824Z,64556.64
2019-06-01T07:03:19.103Z,64550.56
2019-06-01T07:05:45.329Z,64571.37
2019-06-01T07:08:11.559Z,64545.02
2019-06-01T07:10:37.817Z,64604.27
2019-06-01T07:13:03.986Z,64626.30
2019-06-01T07:15:30.106Z,64669.28
2019-06-01T07:17:56.346Z,64699.32
2019-06-01T07:20:25.738Z,64702.20
2019-06-01T07:22:52.005Z,64729.92
2019-06-01T07:25:18.244Z,64690.11
2019-06-01T07:27:44.656Z,64716.73
2019-06-01T07:30:11.098Z,64722.60
2019-06-01T07:32:37.344Z,64754.09
2019-06-01T07:35:08.369Z,64715.05
2019-06-01T07:37:34.627Z,64736.23
2019-06-01T07:40:00.763Z,64757.75
2019-06-01T07:42:28.182Z,64709.41
2019-06-01T07:44:55.171Z,64760.52
2019-06-01T07:47:21.403Z,64799.90
2019-06-01T07:49:48.746Z,64771.61
2019-06-01T07:52:14.897Z,64759.74
2019-06-01T07:54:41.241Z,64767.72
2019-06-01T07:57:07.485Z,64755.30
2019-06-01T07:59:33.742Z,64764.18
2019-06-01T08:01:59.946Z,64808.35
2019-06-01T08:04:28.074Z,64837.84
2019-06-01T08:06:54.361Z,64811.77
2019-06-01T08:09:22.016Z,64783.25
2019-06-01T08:11:48.757Z,64763.06
2019-06-01T08:14:15.009Z,64769.83
2019-06-01T08:16:41.265Z,64748.65
2019-06-01T08:19:07.436Z,64748.97
2019-06-01T08:21:33.843Z,64758.07
2019-06-01T08:24:00.092Z,64777.26
2019-06-01T08:26:26.502Z,64792.81
2019-06-01T08:28:52.988Z,64799.58
2019-06-01T08:31:19.125Z,64763.06
2019-06-01T08:33:45.384Z,64803.00
2019-06-01T08:36:11.614Z,64836.50
2019-06-01T08:38:37.846Z,64900.32
2019-06-01T08:41:04.094Z,64911.55
2019-06-01T08:43:31.687Z,64924.20
2019-06-01T08:45:58.087Z,64833.73
2019-06-01T08:48:25.560Z,64830.73
2019-06-01T08:50:51.889Z,64822.96
2019-06-01T08:53:18.121Z,64852.92
2019-06-01T08:55:44.348Z,64832.06
2019-06-01T08:58:10.606Z,64846.17
2019-06-01T09:00:36.839Z,64900.47
2019-06-01T09:03:03.179Z,64918.42
2019-06-01T09:05:30.345Z,64944.08
2019-06-01T09:07:57.541Z,64861.46
2019-06-01T09:10:25.175Z,64779.93
2019-06-01T09:12:51.810Z,64751.08
2019-06-01T09:15:17.941Z,64778.59
2019-06-01T09:17:44.089Z,64841.82
2019-06-01T09:20:11.332Z,64874.02
2019-06-01T09:22:37.575Z,64845.05
2019-06-01T09:25:04.406Z,64698.10
2019-06-01T09:27:31.848Z,64637.26
2019-06-01T09:29:59.094Z,64688.11
2019-06-01T09:32:26.075Z,64697.01
2019-06-01T09:34:52.401Z,64731.36
2019-06-01T09:37:18.652Z,64709.62
2019-06-01T09:39:44.873Z,64713.62
2019-06-01T09:42:11.094Z,64642.92
2019-06-01T09:44:37.488Z,64612.80
2019-06-01T09:47:03.684Z,64602.50
2019-06-01T09:49:32.166Z,64573.36
2019-06-01T09:51:57.991Z,64592.96
2019-06-01T09:54:24.244Z,64575.79
2019-06-01T09:56:50.361Z,64538.17
2019-06-01T09:59:16.606Z,64450.20
2019-06-01T10:01:42.874Z,64373.24
2019-06-01T10:04:09.016Z,64377.77
2019-06-01T10:06:35.247Z,64328.27
2019-06-01T10:09:01.509Z,64316.12
2019-06-01T10:11:27.752Z,64292.04
2019-06-01T10:13:54.006Z,64300.88
2019-06-01T10:16:20.238Z,64315.68
2019-06-01T10:18:46.485Z,64357.32
2019-06-01T10:21:12.729Z,64379.65
2019-06-01T10:23:38.975Z,64470.33
2019-06-01T10:26:05.231Z,64543.69
2019-06-01T10:28:31.597Z,64523.23
2019-06-01T10:30:57.916Z,64479.94
2019-06-01T10:33:24.168Z,64497.42
2019-06-01T10:35:50.422Z,64507.73
2019-06-01T10:38:16.650Z,64528.09
2019-06-01T10:40:42.902Z,64545.02
2019-06-01T10:43:09.140Z,64592.84
2019-06-01T10:45:35.763Z,64620.10
2019-06-01T10:48:02.041Z,64654.32
2019-06-01T10:50:28.186Z,64607.25
2019-06-01T10:52:54.423Z,64560.07
2019-06-01T10:55:20.554Z,64517.12
2019-06-01T10:57:46.784Z,64499.64
2019-06-01T11:00:13.457Z,64495.32
2019-06-01T11:02:40.861Z,64461.47
2019-06-01T11:05:08.254Z,64483.04
2019-06-01T11:07:34.787Z,64550.34
2019-06-01T11:10:00.933Z,64547.01
2019-06-01T11:12:27.178Z,64602.84
2019-06-01T11:14:53.415Z,64639.39
2019-06-01T11:17:19.659Z,64646.90
2019-06-01T11:19:45.788Z,64641.59
2019-06-01T11:22:11.933Z,64638.83
2019-06-01T11:24:39.451Z,64638.05
2019-06-01T11:27:05.823Z,64604.83
2019-06-01T11:29:31.945Z,64597.83
2019-06-01T11:31:58.194Z,64544.80
2019-06-01T11:34:24.434Z,64597.05
2019-06-01T11:37:04.523Z,64613.24
2019-06-01T11:39:18.707Z,64585.42
2019-06-01T11:41:44.954Z,64570.37
2019-06-01T11:44:11.182Z,64589.08
2019-06-01T11:46:38.763Z,64617.89
2019-06-01T11:49:05.194Z,64616.99
2019-06-01T11:51:32.236Z,64587.41
2019-06-01T11:53:58.683Z,64618.88
2019-06-01T11:56:24.925Z,64598.60
2019-06-01T11:58:51.174Z,64639.60
2019-06-01T12:01:17.413Z,64662.85
2019-06-01T12:03:43.962Z,64662.63
2019-06-01T12:06:10.604Z,64640.93
2019-06-01T12:08:37.987Z,64629.64
2019-06-01T12:11:04.388Z,64585.64
2019-06-01T12:13:30.659Z,64611.13
2019-06-01T12:15:56.888Z,64664.62
2019-06-01T12:18:23.132Z,64641.69
2019-06-01T12:20:49.357Z,64631.95
2019-06-01T12:23:15.630Z,64656.45
2019-06-01T12:25:42.188Z,64674.17
2019-06-01T12:28:08.400Z,64656.86
2019-06-01T12:30:34.642Z,64686.46
2019-06-01T12:33:00.769Z,64681.69
2019-06-01T12:35:27.022Z,64656.86
2019-06-01T12:38:05.558Z,64658.20
2019-06-01T12:40:22.051Z,64648.02
2019-06-01T12:42:48.284Z,64622.98
2019-06-01T12:45:22.629Z,64634.27
2019-06-01T12:47:49.522Z,64615.66
2019-06-01T12:50:15.302Z,64601.92
2019-06-01T12:52:42.259Z,64587.31
2019-06-01T12:55:08.704Z,64559.96
2019-06-01T12:57:34.930Z,64581.55
2019-06-01T13:00:01.178Z,64584.53
2019-06-01T13:02:27.407Z,64577.11
2019-06-01T13:04:53.661Z,64548.89
2019-06-01T13:07:19.937Z,64512.83
2019-06-01T13:09:46.296Z,64506.07
2019-06-01T13:12:12.645Z,64499.77
2019-06-01T13:14:38.872Z,64505.74
2019-06-01T13:17:07.725Z,64495.99
2019-06-01T13:19:33.286Z,64522.23
2019-06-01T13:21:59.522Z,64500.32
2019-06-01T13:24:25.747Z,64474.20
2019-06-01T13:26:52.006Z,64469.22
2019-06-01T13:29:18.219Z,64446.44
2019-06-01T13:31:44.486Z,64403.77
2019-06-01T13:34:10.709Z,64406.18
2019-06-01T13:36:36.857Z,64435.60
2019-06-01T13:39:06.302Z,64400.67
2019-06-01T13:41:32.558Z,64363.52
2019-06-01T13:43:58.790Z,64351.46
2019-06-01T13:46:25.042Z,64342.29
2019-06-01T13:48:52.752Z,64278.77
2019-06-01T13:51:19.636Z,64259.79
2019-06-01T13:53:46.353Z,64252.27
2019-06-01T13:56:12.641Z,64250.95
2019-06-01T13:58:38.988Z,64269.16
2019-06-01T14:01:05.259Z,64279.54
2019-06-01T14:03:31.532Z,64284.62
2019-06-01T14:06:00.884Z,64264.74
2019-06-01T14:08:29.238Z,64255.37
2019-06-01T14:10:55.301Z,64252.06
2019-06-01T14:13:21.765Z,64230.20
2019-06-01T14:15:47.922Z,64216.75
2019-06-01T14:18:14.178Z,64184.20
2019-06-01T14:20:40.425Z,64173.59
2019-06-01T14:23:06.703Z,64173.59
2019-06-01T14:25:32.961Z,64134.20
2019-06-01T14:27:59.212Z,64094.51
2019-06-01T14:30:25.363Z,64063.64
2019-06-01T14:32:52.349Z,64052.09
2019-06-01T14:35:18.652Z,64069.48
2019-06-01T14:37:44.905Z,64097.60
2019-06-01T14:40:11.198Z,64104.77
2019-06-01T14:42:38.329Z,64074.90
2019-06-01T14:45:06.803Z,64052.62
2019-06-01T14:47:33.056Z,64020.99
2019-06-01T14:49:59.187Z,64024.95
2019-06-01T14:52:25.434Z,64017.13
2019-06-01T14:54:51.836Z,63999.83
2019-06-01T14:57:18.137Z,63996.87
2019-06-01T14:59:44.403Z,63995.10
2019-06-01T15:02:10.530Z,63990.48
2019-06-01T15:04:36.778Z,63948.62
2019-06-01T15:07:03.321Z,63938.06
2019-06-01T15:09:29.577Z,63938.28
2019-06-01T15:11:56.593Z,63909.66
2019-06-01T15:14:22.974Z,63929.68
2019-06-01T15:16:49.612Z,63910.32
2019-06-01T15:19:16.098Z,63930.46
2019-06-01T15:21:42.330Z,63947.96
2019-06-01T15:24:08.600Z,63952.92
2019-06-01T15:26:34.850Z,63944.90
2019-06-01T15:29:00.999Z,63909.34
2019-06-01T15:31:27.241Z,63894.35
2019-06-01T15:33:53.485Z,63882.13
2019-06-01T15:36:19.722Z,63871.58
2019-06-01T15:38:46.002Z,63866.62
2019-06-01T15:41:12.246Z,63853.75
2019-06-01T15:43:38.504Z,63846.60
2019-06-01T15:46:04.650Z,63830.00
2019-06-01T15:48:30.881Z,63822.41
2019-06-01T15:51:01.316Z,63840.77
2019-06-01T15:53:25.269Z,63847.92
2019-06-01T15:55:52.210Z,63835.18
2019-06-01T15:58:18.679Z,63838.03
2019-06-01T16:00:45.268Z,63845.52
2019-06-01T16:03:11.803Z,63841.00
2019-06-01T16:05:38.046Z,63833.83
2019-06-01T16:08:04.322Z,63816.37
2019-06-01T16:10:30.459Z,63820.64
2019-06-01T16:12:57.466Z,63795.70
2019-06-01T16:15:23.735Z,63777.77
2019-06-01T16:17:49.960Z,63769.31
2019-06-01T16:20:18.310Z,63770.62
2019-06-01T16:22:44.955Z,63736.20
2019-06-01T16:25:13.005Z,63727.54
2019-06-01T16:27:39.239Z,63725.33
2019-06-01T16:30:06.789Z,63714.57
2019-06-01T16:32:33.171Z,63702.04
2019-06-01T16:35:00.927Z,63696.35
2019-06-01T16:37:27.349Z,63697.87
2019-06-01T16:39:59.748Z,63692.83
2019-06-01T16:42:21.631Z,63703.70
2019-06-01T16:44:47.858Z,63706.12
2019-06-01T16:47:14.115Z,63703.59
2019-06-01T16:49:40.340Z,63700.73
2019-06-01T16:52:07.212Z,63681.82
2019-06-01T16:54:33.534Z,63680.07
2019-06-01T16:56:59.782Z,63691.15
2019-06-01T16:59:26.013Z,63687.10
2019-06-01T17:01:52.254Z,63682.93
2019-06-01T17:04:18.493Z,63679.20
2019-06-01T17:06:45.043Z,63683.25
2019-06-01T17:09:11.273Z,63676.76
2019-06-01T17:11:37.520Z,63676.78
2019-06-01T17:14:07.019Z,63687.10
2019-06-01T17:16:33.249Z,63694.45
2019-06-01T17:18:59.486Z,63683.16
2019-06-01T17:21:25.729Z,63677.88
2019-06-01T17:23:51.992Z,63669.88
2019-06-01T17:26:18.237Z,63665.36
2019-06-01T17:28:44.373Z,63655.05
2019-06-01T17:31:10.599Z,63656.57
2019-06-01T17:33:36.745Z,63644.07
2019-06-01T17:36:02.977Z,63650.19
2019-06-01T17:38:29.224Z,63647.36
2019-06-01T17:40:55.485Z,63651.96
2019-06-01T17:43:21.758Z,63656.13
2019-06-01T17:45:47.920Z,63661.19
2019-06-01T17:48:25.627Z,63656.68
2019-06-01T17:50:42.331Z,63649.77
2019-06-01T17:53:08.927Z,63648.67
2019-06-01T17:55:37.436Z,63654.91
2019-06-01T17:58:05.584Z,63647.68
2019-06-01T18:00:31.931Z,63649.55
2019-06-01T18:02:58.312Z,63654.15
2019-06-01T18:05:24.752Z,63651.41
2019-06-01T18:07:51.000Z,63649.55
2019-06-01T18:10:17.772Z,63645.38
2019-06-01T18:12:44.199Z,63640.64
2019-06-01T18:15:10.452Z,63633.09
2019-06-01T18:17:36.689Z,63633.85
2019-06-01T18:20:06.706Z,63629.57
2019-06-01T18:22:34.355Z,63624.53
2019-06-01T18:25:00.693Z,63624.73
2019-06-01T18:27:27.049Z,63621.56
2019-06-01T18:29:53.484Z,63608.95
2019-06-01T18:32:19.719Z,63604.32
2019-06-01T18:34:46.127Z,63609.36
2019-06-01T18:37:14.383Z,63598.18
2019-06-01T18:39:41.293Z,63591.25
2019-06-01T18:42:08.285Z,63579.29
2019-06-01T18:44:34.929Z,63577.98
2019-06-01T18:47:01.162Z,63574.69
2019-06-01T18:49:27.473Z,63570.18
2019-06-01T18:51:53.805Z,63564.89
2019-06-01T18:54:20.235Z,63564.36
2019-06-01T18:56:46.523Z,63561.40
2019-06-01T18:59:12.793Z,63556.04
2019-06-01T19:01:39.014Z,63555.83
2019-06-01T19:04:05.288Z,63555.70
2019-06-01T19:06:31.528Z,63544.98
2019-06-01T19:08:57.838Z,63546.17
2019-06-01T19:11:32.611Z,63535.20
2019-06-01T19:13:52.731Z,63527.73
2019-06-01T19:16:18.892Z,63524.36
2019-06-01T19:18:45.151Z,63523.89
2019-06-01T19:21:12.693Z,63510.51
2019-06-01T19:23:39.151Z,63510.83
2019-06-01T19:26:09.142Z,63497.48
2019-06-01T19:28:33.799Z,63501.64
2019-06-01T19:31:00.124Z,63495.50
2019-06-01T19:33:26.446Z,63493.06
2019-06-01T19:35:52.807Z,63477.76
2019-06-01T19:38:19.904Z,63473.80
2019-06-01T19:40:46.318Z,63474.45
2019-06-01T19:43:13.441Z,63462.50
2019-06-01T19:45:40.122Z,63453.86
2019-06-01T19:48:08.217Z,63451.54
2019-06-01T19:50:35.029Z,63442.03
2019-06-01T19:53:01.274Z,63434.56
2019-06-01T19:55:27.596Z,63428.40
2019-06-01T19:57:53.907Z,63415.09
2019-06-01T20:00:20.246Z,63414.83
2019-06-01T20:02:46.562Z,63409.91
2019-06-01T20:05:14.567Z,63402.24
2019-06-01T20:07:41.003Z,63398.20
2019-06-01T20:10:07.710Z,63388.88
2019-06-01T20:12:34.103Z,63384.70
2019-06-01T20:15:00.406Z,63377.79
2019-06-01T20:17:26.787Z,63372.32
2019-06-01T20:19:53.297Z,63356.55
2019-06-01T20:22:19.595Z,63345.61
2019-06-01T20:24:45.843Z,63335.96
2019-06-01T20:27:13.259Z,63326.32
2019-06-01T20:29:39.546Z,63307.30
2019-06-01T20:32:05.698Z,63298.77
2019-06-01T20:34:31.923Z,63288.70
2019-06-01T20:36:58.179Z,63281.79
2019-06-01T20:39:24.513Z,63272.30
2019-06-01T20:41:50.795Z,63264.96
2019-06-01T20:44:17.082Z,63255.00
2019-06-01T20:46:43.261Z,63247.55
2019-06-01T20:49:09.427Z,63228.97
2019-06-01T20:51:35.560Z,63224.37
2019-06-01T20:54:01.798Z,63215.20
2019-06-01T20:56:28.046Z,63213.43
2019-06-01T20:58:54.296Z,63207.77
2019-06-01T21:01:21.805Z,63206.88
2019-06-01T21:03:48.283Z,63205.25
2019-06-01T21:06:15.729Z,63201.54
2019-06-01T21:08:42.153Z,63207.43
2019-06-01T21:11:08.412Z,63202.52
2019-06-01T21:13:34.573Z,63199.36
2019-06-01T21:16:00.799Z,63201.21
2019-06-01T21:18:27.025Z,63201.54
2019-06-01T21:20:53.287Z,63208.18
2019-06-01T21:23:20.660Z,63208.85
2019-06-01T21:25:47.103Z,63214.21
2019-06-01T21:28:15.833Z,63216.94
2019-06-01T21:30:41.558Z,63217.05
2019-06-01T21:33:07.799Z,63218.16
2019-06-01T21:35:34.045Z,63218.71
2019-06-01T21:38:00.288Z,63219.79
2019-06-01T21:40:26.556Z,63222.74
2019-06-01T21:43:03.203Z,63223.49
2019-06-01T21:45:21.716Z,63215.87
2019-06-01T21:47:48.070Z,63221.98
2019-06-01T21:50:16.548Z,63223.84
2019-06-01T21:52:45.154Z,63222.54
2019-06-01T21:55:11.812Z,63227.32
2019-06-01T21:57:38.966Z,63225.59
2019-06-01T22:00:10.133Z,63230.60
2019-06-01T22:02:36.361Z,63231.48
2019-06-01T22:05:05.611Z,63223.75
2019-06-01T22:07:31.853Z,63225.14
2019-06-01T22:09:58.085Z,63197.92
2019-06-01T22:12:25.666Z,63224.37
2019-06-01T22:14:52.311Z,63218.71
2019-06-01T22:17:20.217Z,63217.26
2019-06-01T22:19:46.640Z,63214.12
2019-06-01T22:22:12.906Z,63214.65
2019-06-01T22:24:39.174Z,63212.68
2019-06-01T22:27:05.415Z,63211.80
2019-06-01T22:29:31.544Z,63206.59
2019-06-01T22:31:57.686Z,63200.12
2019-06-01T22:34:24.858Z,63188.75
2019-06-01T22:36:51.872Z,63189.18
2019-06-01T22:39:19.436Z,63189.06
2019-06-01T22:41:46.250Z,63188.17
2019-06-01T22:44:12.477Z,63185.01
2019-06-01T22:46:38.724Z,63186.54
2019-06-01T22:49:04.950Z,63182.49
2019-06-01T22:51:31.089Z,63175.18
2019-06-01T22:53:57.322Z,63170.05
2019-06-01T22:56:23.455Z,63168.62
2019-06-01T22:58:49.691Z,63162.20
2019-06-01T23:01:15.917Z,63157.70
2019-06-01T23:03:42.057Z,63151.81
2019-06-01T23:06:08.295Z,63154.42
2019-06-01T23:08:34.536Z,63152.36
2019-06-01T23:11:00.776Z,63147.44
2019-06-01T23:13:28.110Z,63145.89
2019-06-01T23:15:54.460Z,63137.49
2019-06-01T23:18:21.717Z,63125.93
2019-06-01T23:20:47.950Z,63122.86
2019-06-01T23:23:14.188Z,63120.86
2019-06-01T23:25:40.413Z,63115.94
2019-06-01T23:28:06.558Z,63107.89
2019-06-01T23:30:32.780Z,63104.49
2019-06-01T23:32:59.023Z,63095.20
2019-06-01T23:35:26.326Z,63083.87
2019-06-01T23:37:52.890Z,63078.82
2019-06-01T23:40:19.112Z,63072.25
2019-06-01T23:42:45.600Z,63068.23
2019-06-01T23:45:11.826Z,63064.20
2019-06-01T23:47:38.065Z,63058.21
2019-06-01T23:50:05.001Z,63049.14
2019-06-01T23:52:31.663Z,63042.25
2019-06-01T23:54:58.084Z,63042.65
2019-06-01T23:57:24.204Z,63035.70
2019-06-01T23:59:50.455Z,63039.05
